Aérodrome :
LOGIN :

S'inscrire | Disclaimer

   EN    FR    IT 

 










Légende :    VFR   VFR Marginal   IFR   IFR Intensif   IFR Très Intensif
Visi : 
Plafond : 
>= 8 km
>= 3000ft
5 à 8 km
1000 à 3000 ft
1500m à 5 km
500 à 1000 ft
800 à 1500m
200 à 500 ft
< 800m
< 200 ft
Symboles :   Orages  Brouillard  Fortes neiges  Fortes précipitations  Vent > 20 kt
SIGMETs :   Divers  Orages  Givrage  Turbulence  Onde Orograph.  Cendres Volcan.







- Altitude de l'aérodrome : 238 ft
- Code IATA : FAB
- Voir les cartes d'approche


EGLF - Farnborough

DERNIER METAR :
  • 131620Z 27008KT 240V330 9999 FEW022 05/04 Q0992

METARs EXPIRÉS :
  • 131550Z 30018G35KT 250V340 9999 4000S -RA SCT028 05/05 Q0992 RERA
  • 131520Z 24018G35KT 230V290 9000 2500S SHRA SCT012 BKN038 07/07 Q0991 REGS
  • 131450Z 24016KT 9999 -SHRA SCT019 SCT027 09/08 Q0991
  • 131420Z 23017KT 9999 SCT015 SCT035 09/08 Q0992
  • 131350Z 23018KT 9999 SCT017 SCT024 09/08 Q0993

TAF AMD TAF EGLF
Valide du 13 à 15h jusqu'au 13 à 22h UTC


131547Z 1315/1322 24012KT 9999 SCT025
TEMPO 1315/1316 25018G28KT 7000 SHRA BKN014
TEMPO 1319/1322 25025G35KT 6000 +SHRA BKN014
ATIS : +44 09063 800 400 (*282)
Pas de NOTAMs connus pour ce terrain.
1 SIGMET publié pour la FIR London (EGTT) :
 
Turbulence forte
EGTT SIGMET 02 VALID 131500/131900 EGRR
EGTT LONDON FIR SEV TURB FCST W OF LINE N5204 W00600 - N4903 W00654 SFC/FL060 MOV E 50KT NC=



MET'MAP, la Météo Aéronautique d'un coup d'oeil ! - Copyright ORBIFLY Décembre 2007 - Disclaimer

ORBIFLY MET'MAP TEAM :

Programmation & Développement : Alexandra Zaïnal
Conception & Développement : Baudouin d'Aumeries
Co-Programmation & Développement : Marc-Olivier Méhu
Soutien technique & logistique : Manuel Goepfert

Contact : metmap@orbifly.com




SOURCES & CREDITS :

   NOAA